sensor_id;sensor_type;location;lat;lon;timestamp;P1;durP1;ratioP1;P2;durP2;ratioP2
38843;SDS011;24596;48.080;8.362;2022-12-11T00:00:42;21.83;;;10.03;;
38843;SDS011;24596;48.080;8.362;2022-12-11T00:03:07;21.57;;;10.47;;
38843;SDS011;24596;48.080;8.362;2022-12-11T00:05:33;24.83;;;10.83;;
38843;SDS011;24596;48.080;8.362;2022-12-11T00:07:58;22.43;;;10.70;;
38843;SDS011;24596;48.080;8.362;2022-12-11T00:10:23;22.93;;;11.57;;
38843;SDS011;24596;48.080;8.362;2022-12-11T00:12:49;31.13;;;17.67;;
38843;SDS011;24596;48.080;8.362;2022-12-11T00:15:14;24.43;;;13.67;;
38843;SDS011;24596;48.080;8.362;2022-12-11T00:17:39;24.93;;;12.90;;
38843;SDS011;24596;48.080;8.362;2022-12-11T00:20:04;21.30;;;11.20;;
38843;SDS011;24596;48.080;8.362;2022-12-11T00:22:30;21.97;;;11.57;;
38843;SDS011;24596;48.080;8.362;2022-12-11T00:24:55;25.07;;;11.37;;
38843;SDS011;24596;48.080;8.362;2022-12-11T00:27:20;24.92;;;13.93;;
38843;SDS011;24596;48.080;8.362;2022-12-11T00:29:45;27.80;;;12.37;;
38843;SDS011;24596;48.080;8.362;2022-12-11T00:32:11;26.63;;;11.57;;
38843;SDS011;24596;48.080;8.362;2022-12-11T00:34:36;21.48;;;9.77;;
38843;SDS011;24596;48.080;8.362;2022-12-11T00:37:01;20.90;;;10.03;;
38843;SDS011;24596;48.080;8.362;2022-12-11T00:39:26;24.85;;;10.45;;
38843;SDS011;24596;48.080;8.362;2022-12-11T00:41:51;22.97;;;10.17;;
38843;SDS011;24596;48.080;8.362;2022-12-11T00:44:17;21.60;;;10.33;;
38843;SDS011;24596;48.080;8.362;2022-12-11T00:46:42;22.27;;;9.90;;
38843;SDS011;24596;48.080;8.362;2022-12-11T00:49:07;23.37;;;11.07;;
38843;SDS011;24596;48.080;8.362;2022-12-11T00:51:32;20.20;;;10.07;;
38843;SDS011;24596;48.080;8.362;2022-12-11T00:53:57;20.73;;;10.23;;
38843;SDS011;24596;48.080;8.362;2022-12-11T00:56:23;22.20;;;10.07;;
38843;SDS011;24596;48.080;8.362;2022-12-11T00:58:49;22.03;;;9.67;;
38843;SDS011;24596;48.080;8.362;2022-12-11T01:01:16;23.63;;;10.83;;
38843;SDS011;24596;48.080;8.362;2022-12-11T01:03:42;26.05;;;11.15;;
38843;SDS011;24596;48.080;8.362;2022-12-11T01:06:07;26.70;;;11.97;;
38843;SDS011;24596;48.080;8.362;2022-12-11T01:08:36;26.57;;;12.43;;
38843;SDS011;24596;48.080;8.362;2022-12-11T01:11:06;25.67;;;11.73;;
38843;SDS011;24596;48.080;8.362;2022-12-11T01:13:31;26.88;;;11.48;;
38843;SDS011;24596;48.080;8.362;2022-12-11T01:15:57;24.23;;;12.18;;
38843;SDS011;24596;48.080;8.362;2022-12-11T01:18:22;28.47;;;13.03;;
38843;SDS011;24596;48.080;8.362;2022-12-11T01:20:47;28.80;;;12.07;;
38843;SDS011;24596;48.080;8.362;2022-12-11T01:23:13;23.40;;;10.40;;
38843;SDS011;24596;48.080;8.362;2022-12-11T01:25:38;25.48;;;11.02;;
38843;SDS011;24596;48.080;8.362;2022-12-11T01:28:04;23.23;;;11.63;;
38843;SDS011;24596;48.080;8.362;2022-12-11T01:30:29;23.97;;;10.77;;
38843;SDS011;24596;48.080;8.362;2022-12-11T01:32:54;30.03;;;11.20;;
38843;SDS011;24596;48.080;8.362;2022-12-11T01:35:20;25.63;;;11.63;;
38843;SDS011;24596;48.080;8.362;2022-12-11T01:37:48;34.17;;;13.50;;
38843;SDS011;24596;48.080;8.362;2022-12-11T01:40:14;25.03;;;11.90;;
38843;SDS011;24596;48.080;8.362;2022-12-11T01:42:39;32.80;;;12.88;;
38843;SDS011;24596;48.080;8.362;2022-12-11T01:47:45;25.63;;;11.60;;
38843;SDS011;24596;48.080;8.362;2022-12-11T01:50:11;23.20;;;10.17;;
38843;SDS011;24596;48.080;8.362;2022-12-11T01:52:36;21.60;;;10.10;;
38843;SDS011;24596;48.080;8.362;2022-12-11T01:55:04;23.90;;;10.43;;
38843;SDS011;24596;48.080;8.362;2022-12-11T01:57:29;24.53;;;11.37;;
38843;SDS011;24596;48.080;8.362;2022-12-11T01:59:54;25.48;;;11.80;;
38843;SDS011;24596;48.080;8.362;2022-12-11T02:02:25;23.53;;;11.33;;
38843;SDS011;24596;48.080;8.362;2022-12-11T02:04:51;25.05;;;10.07;;
38843;SDS011;24596;48.080;8.362;2022-12-11T02:07:16;22.50;;;10.17;;
38843;SDS011;24596;48.080;8.362;2022-12-11T02:09:42;21.50;;;9.37;;
38843;SDS011;24596;48.080;8.362;2022-12-11T02:14:37;20.73;;;10.27;;
38843;SDS011;24596;48.080;8.362;2022-12-11T02:17:05;19.67;;;9.85;;
38843;SDS011;24596;48.080;8.362;2022-12-11T02:22:00;20.93;;;9.50;;
38843;SDS011;24596;48.080;8.362;2022-12-11T02:24:49;19.97;;;8.67;;
38843;SDS011;24596;48.080;8.362;2022-12-11T02:29:51;20.88;;;9.35;;
38843;SDS011;24596;48.080;8.362;2022-12-11T02:32:26;19.10;;;9.25;;
38843;SDS011;24596;48.080;8.362;2022-12-11T02:35:08;19.48;;;8.13;;
38843;SDS011;24596;48.080;8.362;2022-12-11T02:37:35;19.25;;;9.23;;
38843;SDS011;24596;48.080;8.362;2022-12-11T02:40:01;21.63;;;9.63;;
38843;SDS011;24596;48.080;8.362;2022-12-11T02:42:28;21.65;;;10.05;;
38843;SDS011;24596;48.080;8.362;2022-12-11T02:44:58;22.00;;;9.33;;
38843;SDS011;24596;48.080;8.362;2022-12-11T02:47:24;21.95;;;9.23;;
38843;SDS011;24596;48.080;8.362;2022-12-11T02:49:51;18.35;;;8.57;;
38843;SDS011;24596;48.080;8.362;2022-12-11T02:52:18;21.83;;;9.02;;
38843;SDS011;24596;48.080;8.362;2022-12-11T02:54:45;20.55;;;10.25;;
38843;SDS011;24596;48.080;8.362;2022-12-11T02:57:13;24.15;;;10.95;;
38843;SDS011;24596;48.080;8.362;2022-12-11T02:59:40;25.40;;;10.18;;
38843;SDS011;24596;48.080;8.362;2022-12-11T03:02:06;25.17;;;10.95;;
38843;SDS011;24596;48.080;8.362;2022-12-11T03:04:32;20.48;;;10.18;;
38843;SDS011;24596;48.080;8.362;2022-12-11T03:06:58;24.83;;;10.18;;
38843;SDS011;24596;48.080;8.362;2022-12-11T03:09:26;25.93;;;10.10;;
38843;SDS011;24596;48.080;8.362;2022-12-11T03:11:55;25.73;;;10.50;;
38843;SDS011;24596;48.080;8.362;2022-12-11T03:14:20;22.07;;;9.77;;
38843;SDS011;24596;48.080;8.362;2022-12-11T03:16:51;24.77;;;11.52;;
38843;SDS011;24596;48.080;8.362;2022-12-11T03:19:28;22.75;;;10.45;;
38843;SDS011;24596;48.080;8.362;2022-12-11T03:22:00;26.60;;;11.43;;
38843;SDS011;24596;48.080;8.362;2022-12-11T03:24:29;24.98;;;10.80;;
38843;SDS011;24596;48.080;8.362;2022-12-11T03:26:57;24.47;;;11.00;;
38843;SDS011;24596;48.080;8.362;2022-12-11T03:29:24;25.40;;;11.50;;
38843;SDS011;24596;48.080;8.362;2022-12-11T03:31:54;25.57;;;11.20;;
38843;SDS011;24596;48.080;8.362;2022-12-11T03:34:22;25.40;;;11.18;;
38843;SDS011;24596;48.080;8.362;2022-12-11T03:36:48;27.80;;;12.00;;
38843;SDS011;24596;48.080;8.362;2022-12-11T03:39:15;23.80;;;10.37;;
38843;SDS011;24596;48.080;8.362;2022-12-11T03:41:43;23.23;;;10.10;;
38843;SDS011;24596;48.080;8.362;2022-12-11T03:44:09;22.50;;;10.07;;
38843;SDS011;24596;48.080;8.362;2022-12-11T03:46:36;27.43;;;10.60;;
38843;SDS011;24596;48.080;8.362;2022-12-11T03:49:05;25.00;;;10.13;;
38843;SDS011;24596;48.080;8.362;2022-12-11T03:51:31;22.70;;;10.67;;
38843;SDS011;24596;48.080;8.362;2022-12-11T03:53:57;29.30;;;10.83;;
38843;SDS011;24596;48.080;8.362;2022-12-11T03:56:23;28.07;;;10.90;;
38843;SDS011;24596;48.080;8.362;2022-12-11T03:58:49;29.43;;;11.77;;
38843;SDS011;24596;48.080;8.362;2022-12-11T04:01:14;25.97;;;12.37;;
38843;SDS011;24596;48.080;8.362;2022-12-11T04:03:40;25.43;;;11.37;;
38843;SDS011;24596;48.080;8.362;2022-12-11T04:06:05;25.03;;;11.20;;
38843;SDS011;24596;48.080;8.362;2022-12-11T04:08:30;33.40;;;14.13;;
38843;SDS011;24596;48.080;8.362;2022-12-11T04:10:55;25.73;;;11.07;;
38843;SDS011;24596;48.080;8.362;2022-12-11T04:13:39;25.30;;;10.93;;
38843;SDS011;24596;48.080;8.362;2022-12-11T04:16:05;23.83;;;10.97;;
38843;SDS011;24596;48.080;8.362;2022-12-11T04:18:30;28.53;;;12.20;;
38843;SDS011;24596;48.080;8.362;2022-12-11T04:21:14;32.23;;;13.57;;
38843;SDS011;24596;48.080;8.362;2022-12-11T04:23:58;47.53;;;18.53;;
38843;SDS011;24596;48.080;8.362;2022-12-11T04:26:39;52.13;;;20.57;;
38843;SDS011;24596;48.080;8.362;2022-12-11T04:29:04;35.97;;;15.67;;
38843;SDS011;24596;48.080;8.362;2022-12-11T04:31:29;33.00;;;12.73;;
38843;SDS011;24596;48.080;8.362;2022-12-11T04:33:54;27.43;;;11.87;;
38843;SDS011;24596;48.080;8.362;2022-12-11T04:36:20;30.17;;;12.23;;
38843;SDS011;24596;48.080;8.362;2022-12-11T04:38:45;27.27;;;11.20;;
38843;SDS011;24596;48.080;8.362;2022-12-11T04:41:11;25.50;;;10.87;;
38843;SDS011;24596;48.080;8.362;2022-12-11T04:43:36;24.97;;;11.17;;
38843;SDS011;24596;48.080;8.362;2022-12-11T04:48:27;26.80;;;10.50;;
38843;SDS011;24596;48.080;8.362;2022-12-11T04:50:52;28.83;;;11.33;;
38843;SDS011;24596;48.080;8.362;2022-12-11T04:53:18;34.17;;;14.33;;
38843;SDS011;24596;48.080;8.362;2022-12-11T04:55:43;35.47;;;16.93;;
38843;SDS011;24596;48.080;8.362;2022-12-11T04:58:08;30.93;;;12.70;;
38843;SDS011;24596;48.080;8.362;2022-12-11T05:00:33;23.43;;;10.30;;
38843;SDS011;24596;48.080;8.362;2022-12-11T05:02:59;24.07;;;10.77;;
38843;SDS011;24596;48.080;8.362;2022-12-11T05:05:24;22.67;;;9.60;;
38843;SDS011;24596;48.080;8.362;2022-12-11T05:07:49;23.33;;;10.37;;
38843;SDS011;24596;48.080;8.362;2022-12-11T05:10:14;22.57;;;10.07;;
38843;SDS011;24596;48.080;8.362;2022-12-11T05:12:40;20.07;;;10.03;;
38843;SDS011;24596;48.080;8.362;2022-12-11T05:15:05;23.70;;;9.50;;
38843;SDS011;24596;48.080;8.362;2022-12-11T05:17:30;27.33;;;11.27;;
38843;SDS011;24596;48.080;8.362;2022-12-11T05:19:56;26.07;;;10.70;;
38843;SDS011;24596;48.080;8.362;2022-12-11T05:22:21;24.87;;;10.10;;
38843;SDS011;24596;48.080;8.362;2022-12-11T05:24:46;26.03;;;11.20;;
38843;SDS011;24596;48.080;8.362;2022-12-11T05:27:11;24.33;;;10.83;;
38843;SDS011;24596;48.080;8.362;2022-12-11T05:29:37;27.23;;;11.30;;
38843;SDS011;24596;48.080;8.362;2022-12-11T05:32:02;22.73;;;10.43;;
38843;SDS011;24596;48.080;8.362;2022-12-11T05:34:27;21.80;;;9.93;;
38843;SDS011;24596;48.080;8.362;2022-12-11T05:36:53;21.37;;;9.40;;
38843;SDS011;24596;48.080;8.362;2022-12-11T05:39:18;22.93;;;9.53;;
38843;SDS011;24596;48.080;8.362;2022-12-11T05:41:43;22.87;;;9.57;;
38843;SDS011;24596;48.080;8.362;2022-12-11T05:44:10;25.77;;;8.87;;
38843;SDS011;24596;48.080;8.362;2022-12-11T05:46:36;23.60;;;9.70;;
38843;SDS011;24596;48.080;8.362;2022-12-11T05:49:01;22.27;;;10.03;;
38843;SDS011;24596;48.080;8.362;2022-12-11T05:51:27;30.40;;;12.47;;
38843;SDS011;24596;48.080;8.362;2022-12-11T05:53:53;26.53;;;12.13;;
38843;SDS011;24596;48.080;8.362;2022-12-11T05:56:21;26.87;;;10.97;;
38843;SDS011;24596;48.080;8.362;2022-12-11T05:58:46;24.70;;;9.20;;
38843;SDS011;24596;48.080;8.362;2022-12-11T06:01:13;22.33;;;8.83;;
38843;SDS011;24596;48.080;8.362;2022-12-11T06:03:39;18.80;;;8.27;;
38843;SDS011;24596;48.080;8.362;2022-12-11T06:06:04;19.10;;;8.37;;
38843;SDS011;24596;48.080;8.362;2022-12-11T06:08:30;20.57;;;9.47;;
38843;SDS011;24596;48.080;8.362;2022-12-11T06:10:56;21.53;;;9.53;;
38843;SDS011;24596;48.080;8.362;2022-12-11T06:13:21;20.77;;;8.90;;
38843;SDS011;24596;48.080;8.362;2022-12-11T06:15:46;24.30;;;9.70;;
38843;SDS011;24596;48.080;8.362;2022-12-11T06:18:12;23.17;;;10.17;;
38843;SDS011;24596;48.080;8.362;2022-12-11T06:20:37;25.20;;;9.93;;
38843;SDS011;24596;48.080;8.362;2022-12-11T06:23:02;22.03;;;9.77;;
38843;SDS011;24596;48.080;8.362;2022-12-11T06:25:28;25.33;;;9.57;;
38843;SDS011;24596;48.080;8.362;2022-12-11T06:27:53;22.33;;;10.33;;
38843;SDS011;24596;48.080;8.362;2022-12-11T06:30:19;23.33;;;9.27;;
38843;SDS011;24596;48.080;8.362;2022-12-11T06:32:44;25.13;;;10.43;;
38843;SDS011;24596;48.080;8.362;2022-12-11T06:35:09;21.07;;;9.33;;
38843;SDS011;24596;48.080;8.362;2022-12-11T06:37:38;22.00;;;10.10;;
38843;SDS011;24596;48.080;8.362;2022-12-11T06:40:04;21.77;;;9.50;;
38843;SDS011;24596;48.080;8.362;2022-12-11T06:42:30;21.27;;;9.10;;
38843;SDS011;24596;48.080;8.362;2022-12-11T06:44:56;25.67;;;11.70;;
38843;SDS011;24596;48.080;8.362;2022-12-11T06:47:23;23.50;;;10.43;;
38843;SDS011;24596;48.080;8.362;2022-12-11T06:49:49;27.40;;;12.40;;
38843;SDS011;24596;48.080;8.362;2022-12-11T06:52:14;28.40;;;13.53;;
38843;SDS011;24596;48.080;8.362;2022-12-11T06:54:39;24.30;;;12.87;;
38843;SDS011;24596;48.080;8.362;2022-12-11T06:57:05;27.10;;;11.33;;
38843;SDS011;24596;48.080;8.362;2022-12-11T06:59:30;24.23;;;11.43;;
38843;SDS011;24596;48.080;8.362;2022-12-11T07:01:58;22.60;;;10.50;;
38843;SDS011;24596;48.080;8.362;2022-12-11T07:04:23;25.83;;;12.43;;
38843;SDS011;24596;48.080;8.362;2022-12-11T07:06:51;24.73;;;11.93;;
38843;SDS011;24596;48.080;8.362;2022-12-11T07:09:17;26.43;;;11.00;;
38843;SDS011;24596;48.080;8.362;2022-12-11T07:11:42;21.83;;;9.83;;
38843;SDS011;24596;48.080;8.362;2022-12-11T07:14:07;21.27;;;10.10;;
38843;SDS011;24596;48.080;8.362;2022-12-11T07:16:33;20.27;;;9.23;;
38843;SDS011;24596;48.080;8.362;2022-12-11T07:18:58;25.23;;;10.07;;
38843;SDS011;24596;48.080;8.362;2022-12-11T07:21:24;26.30;;;10.87;;
38843;SDS011;24596;48.080;8.362;2022-12-11T07:23:49;28.63;;;11.30;;
38843;SDS011;24596;48.080;8.362;2022-12-11T07:26:16;24.53;;;10.70;;
38843;SDS011;24596;48.080;8.362;2022-12-11T07:28:42;27.00;;;12.00;;
38843;SDS011;24596;48.080;8.362;2022-12-11T07:31:11;29.53;;;13.90;;
38843;SDS011;24596;48.080;8.362;2022-12-11T07:33:37;30.90;;;13.90;;
38843;SDS011;24596;48.080;8.362;2022-12-11T07:36:06;23.07;;;12.13;;
38843;SDS011;24596;48.080;8.362;2022-12-11T07:38:32;23.83;;;11.05;;
38843;SDS011;24596;48.080;8.362;2022-12-11T07:41:01;20.77;;;10.07;;
38843;SDS011;24596;48.080;8.362;2022-12-11T07:43:26;22.23;;;9.27;;
38843;SDS011;24596;48.080;8.362;2022-12-11T07:45:52;20.85;;;8.73;;
38843;SDS011;24596;48.080;8.362;2022-12-11T07:48:17;21.30;;;10.35;;
38843;SDS011;24596;48.080;8.362;2022-12-11T07:50:42;18.35;;;9.13;;
38843;SDS011;24596;48.080;8.362;2022-12-11T07:53:08;23.75;;;16.77;;
38843;SDS011;24596;48.080;8.362;2022-12-11T07:55:33;20.67;;;10.70;;
38843;SDS011;24596;48.080;8.362;2022-12-11T07:57:58;18.10;;;11.27;;
38843;SDS011;24596;48.080;8.362;2022-12-11T08:00:23;24.73;;;11.65;;
38843;SDS011;24596;48.080;8.362;2022-12-11T08:02:49;17.30;;;9.63;;
38843;SDS011;24596;48.080;8.362;2022-12-11T08:05:14;20.08;;;9.75;;
38843;SDS011;24596;48.080;8.362;2022-12-11T08:07:39;20.40;;;8.55;;
38843;SDS011;24596;48.080;8.362;2022-12-11T08:10:05;18.52;;;10.02;;
38843;SDS011;24596;48.080;8.362;2022-12-11T08:12:31;19.77;;;10.27;;
38843;SDS011;24596;48.080;8.362;2022-12-11T08:14:56;20.00;;;9.75;;
38843;SDS011;24596;48.080;8.362;2022-12-11T08:17:21;18.90;;;9.93;;
38843;SDS011;24596;48.080;8.362;2022-12-11T08:19:47;18.80;;;9.35;;
38843;SDS011;24596;48.080;8.362;2022-12-11T08:22:12;18.52;;;9.93;;
38843;SDS011;24596;48.080;8.362;2022-12-11T08:24:38;19.35;;;10.80;;
38843;SDS011;24596;48.080;8.362;2022-12-11T08:27:03;22.90;;;12.45;;
38843;SDS011;24596;48.080;8.362;2022-12-11T08:29:29;25.45;;;12.60;;
38843;SDS011;24596;48.080;8.362;2022-12-11T08:31:55;24.92;;;12.90;;
38843;SDS011;24596;48.080;8.362;2022-12-11T08:34:20;22.27;;;11.13;;
38843;SDS011;24596;48.080;8.362;2022-12-11T08:36:46;21.10;;;12.30;;
38843;SDS011;24596;48.080;8.362;2022-12-11T08:39:11;75.18;;;66.95;;
38843;SDS011;24596;48.080;8.362;2022-12-11T08:41:36;43.00;;;37.70;;
38843;SDS011;24596;48.080;8.362;2022-12-11T08:44:02;27.13;;;21.23;;
38843;SDS011;24596;48.080;8.362;2022-12-11T08:46:28;22.55;;;15.82;;
38843;SDS011;24596;48.080;8.362;2022-12-11T08:48:54;17.85;;;8.90;;
38843;SDS011;24596;48.080;8.362;2022-12-11T08:51:20;15.32;;;7.70;;
38843;SDS011;24596;48.080;8.362;2022-12-11T08:53:46;13.27;;;7.75;;
38843;SDS011;24596;48.080;8.362;2022-12-11T08:56:13;16.88;;;8.57;;
38843;SDS011;24596;48.080;8.362;2022-12-11T08:58:38;18.20;;;9.02;;
38843;SDS011;24596;48.080;8.362;2022-12-11T09:01:07;16.95;;;9.23;;
38843;SDS011;24596;48.080;8.362;2022-12-11T09:03:33;17.25;;;9.25;;
38843;SDS011;24596;48.080;8.362;2022-12-11T09:05:58;15.13;;;8.65;;
38843;SDS011;24596;48.080;8.362;2022-12-11T09:08:23;16.60;;;7.22;;
38843;SDS011;24596;48.080;8.362;2022-12-11T09:10:49;19.60;;;9.55;;
38843;SDS011;24596;48.080;8.362;2022-12-11T09:13:14;31.17;;;13.18;;
38843;SDS011;24596;48.080;8.362;2022-12-11T09:15:40;40.50;;;20.35;;
38843;SDS011;24596;48.080;8.362;2022-12-11T09:18:05;28.05;;;14.75;;
38843;SDS011;24596;48.080;8.362;2022-12-11T09:20:31;28.67;;;17.33;;
38843;SDS011;24596;48.080;8.362;2022-12-11T09:22:56;25.33;;;16.50;;
38843;SDS011;24596;48.080;8.362;2022-12-11T09:25:21;18.95;;;11.45;;
38843;SDS011;24596;48.080;8.362;2022-12-11T09:27:46;25.75;;;13.95;;
38843;SDS011;24596;48.080;8.362;2022-12-11T09:30:12;19.67;;;11.45;;
38843;SDS011;24596;48.080;8.362;2022-12-11T09:32:37;14.63;;;8.07;;
38843;SDS011;24596;48.080;8.362;2022-12-11T09:35:03;17.05;;;8.77;;
38843;SDS011;24596;48.080;8.362;2022-12-11T09:37:29;16.40;;;8.65;;
38843;SDS011;24596;48.080;8.362;2022-12-11T09:39:54;19.40;;;8.15;;
38843;SDS011;24596;48.080;8.362;2022-12-11T09:45:03;16.58;;;8.00;;
38843;SDS011;24596;48.080;8.362;2022-12-11T09:47:35;16.40;;;7.40;;
38843;SDS011;24596;48.080;8.362;2022-12-11T09:50:03;20.23;;;8.18;;
38843;SDS011;24596;48.080;8.362;2022-12-11T09:52:31;17.50;;;9.02;;
38843;SDS011;24596;48.080;8.362;2022-12-11T09:54:59;15.95;;;8.45;;
38843;SDS011;24596;48.080;8.362;2022-12-11T10:02:39;15.50;;;6.85;;
38843;SDS011;24596;48.080;8.362;2022-12-11T10:15:39;13.80;;;6.95;;
38843;SDS011;24596;48.080;8.362;2022-12-11T10:18:08;30.02;;;13.90;;
38843;SDS011;24596;48.080;8.362;2022-12-11T10:20:35;29.77;;;14.68;;
38843;SDS011;24596;48.080;8.362;2022-12-11T10:23:08;19.52;;;10.13;;
38843;SDS011;24596;48.080;8.362;2022-12-11T10:25:40;17.75;;;9.70;;
38843;SDS011;24596;48.080;8.362;2022-12-11T10:28:10;19.35;;;9.52;;
38843;SDS011;24596;48.080;8.362;2022-12-11T10:30:38;15.93;;;8.13;;
38843;SDS011;24596;48.080;8.362;2022-12-11T10:35:37;10.57;;;5.47;;
38843;SDS011;24596;48.080;8.362;2022-12-11T10:40:39;12.55;;;5.40;;
38843;SDS011;24596;48.080;8.362;2022-12-11T10:43:05;8.07;;;4.15;;
38843;SDS011;24596;48.080;8.362;2022-12-11T10:45:31;12.63;;;5.38;;
38843;SDS011;24596;48.080;8.362;2022-12-11T10:48:08;8.90;;;3.97;;
38843;SDS011;24596;48.080;8.362;2022-12-11T10:50:33;12.50;;;5.82;;
38843;SDS011;24596;48.080;8.362;2022-12-11T10:52:59;8.50;;;4.10;;
38843;SDS011;24596;48.080;8.362;2022-12-11T10:55:26;9.48;;;4.82;;
38843;SDS011;24596;48.080;8.362;2022-12-11T10:58:02;8.27;;;3.78;;
38843;SDS011;24596;48.080;8.362;2022-12-11T11:00:35;12.50;;;6.20;;
38843;SDS011;24596;48.080;8.362;2022-12-11T11:03:02;9.68;;;4.45;;
38843;SDS011;24596;48.080;8.362;2022-12-11T11:08:16;10.40;;;5.15;;
38843;SDS011;24596;48.080;8.362;2022-12-11T11:10:59;10.95;;;5.20;;
38843;SDS011;24596;48.080;8.362;2022-12-11T11:13:26;11.05;;;4.88;;
38843;SDS011;24596;48.080;8.362;2022-12-11T11:16:02;9.77;;;4.53;;
38843;SDS011;24596;48.080;8.362;2022-12-11T11:18:28;10.60;;;4.20;;
38843;SDS011;24596;48.080;8.362;2022-12-11T11:20:54;7.50;;;3.42;;
38843;SDS011;24596;48.080;8.362;2022-12-11T11:23:20;5.70;;;2.60;;
38843;SDS011;24596;48.080;8.362;2022-12-11T11:25:50;9.77;;;3.78;;
38843;SDS011;24596;48.080;8.362;2022-12-11T11:28:21;5.57;;;1.92;;
38843;SDS011;24596;48.080;8.362;2022-12-11T11:30:55;3.83;;;1.42;;
38843;SDS011;24596;48.080;8.362;2022-12-11T11:33:21;5.32;;;2.42;;
38843;SDS011;24596;48.080;8.362;2022-12-11T11:35:54;6.65;;;2.45;;
38843;SDS011;24596;48.080;8.362;2022-12-11T11:38:21;6.15;;;1.75;;
38843;SDS011;24596;48.080;8.362;2022-12-11T11:43:33;4.47;;;1.48;;
38843;SDS011;24596;48.080;8.362;2022-12-11T11:46:03;5.07;;;1.80;;
38843;SDS011;24596;48.080;8.362;2022-12-11T11:48:32;4.68;;;1.40;;
38843;SDS011;24596;48.080;8.362;2022-12-11T11:51:07;3.95;;;1.48;;
38843;SDS011;24596;48.080;8.362;2022-12-11T11:53:36;6.60;;;3.63;;
38843;SDS011;24596;48.080;8.362;2022-12-11T11:58:48;4.53;;;1.75;;
38843;SDS011;24596;48.080;8.362;2022-12-11T12:01:16;4.00;;;1.55;;
38843;SDS011;24596;48.080;8.362;2022-12-11T12:03:42;3.35;;;1.30;;
38843;SDS011;24596;48.080;8.362;2022-12-11T12:06:11;3.65;;;1.45;;
38843;SDS011;24596;48.080;8.362;2022-12-11T12:13:47;6.10;;;2.25;;
38843;SDS011;24596;48.080;8.362;2022-12-11T12:16:21;6.32;;;2.13;;
38843;SDS011;24596;48.080;8.362;2022-12-11T12:18:55;3.85;;;1.42;;
38843;SDS011;24596;48.080;8.362;2022-12-11T12:26:51;7.67;;;3.30;;
38843;SDS011;24596;48.080;8.362;2022-12-11T12:29:37;8.70;;;3.10;;
38843;SDS011;24596;48.080;8.362;2022-12-11T12:34:36;3.80;;;1.50;;
38843;SDS011;24596;48.080;8.362;2022-12-11T12:39:49;4.73;;;1.57;;
38843;SDS011;24596;48.080;8.362;2022-12-11T12:47:46;3.42;;;1.13;;
38843;SDS011;24596;48.080;8.362;2022-12-11T12:50:14;3.33;;;1.00;;
38843;SDS011;24596;48.080;8.362;2022-12-11T12:52:40;6.18;;;2.13;;
38843;SDS011;24596;48.080;8.362;2022-12-11T12:57:38;5.88;;;2.47;;
38843;SDS011;24596;48.080;8.362;2022-12-11T13:00:05;7.07;;;2.17;;
38843;SDS011;24596;48.080;8.362;2022-12-11T13:02:32;6.40;;;2.22;;
38843;SDS011;24596;48.080;8.362;2022-12-11T13:04:59;3.75;;;1.70;;
38843;SDS011;24596;48.080;8.362;2022-12-11T13:07:28;3.17;;;1.38;;
38843;SDS011;24596;48.080;8.362;2022-12-11T13:12:28;5.18;;;2.10;;
38843;SDS011;24596;48.080;8.362;2022-12-11T13:14:55;6.55;;;1.70;;
38843;SDS011;24596;48.080;8.362;2022-12-11T13:19:46;5.82;;;2.30;;
38843;SDS011;24596;48.080;8.362;2022-12-11T13:27:23;6.30;;;2.38;;
38843;SDS011;24596;48.080;8.362;2022-12-11T13:29:48;6.20;;;2.28;;
38843;SDS011;24596;48.080;8.362;2022-12-11T13:34:40;4.57;;;1.67;;
38843;SDS011;24596;48.080;8.362;2022-12-11T13:37:15;6.18;;;2.05;;
38843;SDS011;24596;48.080;8.362;2022-12-11T13:39:45;4.28;;;1.80;;
38843;SDS011;24596;48.080;8.362;2022-12-11T13:44:51;6.95;;;2.08;;
38843;SDS011;24596;48.080;8.362;2022-12-11T13:47:16;4.88;;;1.50;;
38843;SDS011;24596;48.080;8.362;2022-12-11T13:49:43;5.22;;;1.92;;
38843;SDS011;24596;48.080;8.362;2022-12-11T13:52:17;5.72;;;1.67;;
38843;SDS011;24596;48.080;8.362;2022-12-11T13:54:47;5.72;;;1.90;;
38843;SDS011;24596;48.080;8.362;2022-12-11T13:57:22;4.95;;;2.05;;
38843;SDS011;24596;48.080;8.362;2022-12-11T13:59:50;5.72;;;1.77;;
38843;SDS011;24596;48.080;8.362;2022-12-11T14:04:46;12.20;;;5.10;;
38843;SDS011;24596;48.080;8.362;2022-12-11T14:07:14;15.73;;;5.85;;
38843;SDS011;24596;48.080;8.362;2022-12-11T14:09:42;9.00;;;2.95;;
38843;SDS011;24596;48.080;8.362;2022-12-11T14:12:14;5.47;;;2.03;;
38843;SDS011;24596;48.080;8.362;2022-12-11T14:14:42;6.45;;;2.33;;
38843;SDS011;24596;48.080;8.362;2022-12-11T14:17:11;6.45;;;3.05;;
38843;SDS011;24596;48.080;8.362;2022-12-11T14:19:38;6.50;;;3.30;;
38843;SDS011;24596;48.080;8.362;2022-12-11T14:22:03;6.53;;;2.58;;
38843;SDS011;24596;48.080;8.362;2022-12-11T14:24:30;7.97;;;2.78;;
38843;SDS011;24596;48.080;8.362;2022-12-11T14:26:56;5.28;;;2.40;;
38843;SDS011;24596;48.080;8.362;2022-12-11T14:29:25;6.32;;;2.28;;
38843;SDS011;24596;48.080;8.362;2022-12-11T14:31:51;8.55;;;3.13;;
38843;SDS011;24596;48.080;8.362;2022-12-11T14:34:18;8.27;;;3.20;;
38843;SDS011;24596;48.080;8.362;2022-12-11T14:36:45;5.18;;;2.53;;
38843;SDS011;24596;48.080;8.362;2022-12-11T14:39:25;5.70;;;2.53;;
38843;SDS011;24596;48.080;8.362;2022-12-11T14:42:00;3.83;;;1.88;;
38843;SDS011;24596;48.080;8.362;2022-12-11T14:44:27;12.13;;;7.68;;
38843;SDS011;24596;48.080;8.362;2022-12-11T14:46:59;9.23;;;5.93;;
38843;SDS011;24596;48.080;8.362;2022-12-11T14:50:01;6.57;;;3.40;;
38843;SDS011;24596;48.080;8.362;2022-12-11T14:52:19;6.60;;;4.07;;
38843;SDS011;24596;48.080;8.362;2022-12-11T14:54:46;6.93;;;2.80;;
38843;SDS011;24596;48.080;8.362;2022-12-11T14:57:25;5.75;;;3.08;;
38843;SDS011;24596;48.080;8.362;2022-12-11T14:59:51;8.02;;;2.50;;
38843;SDS011;24596;48.080;8.362;2022-12-11T15:02:36;8.23;;;2.90;;
38843;SDS011;24596;48.080;8.362;2022-12-11T15:05:05;6.85;;;2.80;;
38843;SDS011;24596;48.080;8.362;2022-12-11T15:07:31;8.07;;;2.88;;
38843;SDS011;24596;48.080;8.362;2022-12-11T15:09:57;7.25;;;3.00;;
38843;SDS011;24596;48.080;8.362;2022-12-11T15:12:22;7.40;;;2.90;;
38843;SDS011;24596;48.080;8.362;2022-12-11T15:14:54;9.25;;;3.10;;
38843;SDS011;24596;48.080;8.362;2022-12-11T15:17:21;7.07;;;2.97;;
38843;SDS011;24596;48.080;8.362;2022-12-11T15:19:48;6.95;;;3.28;;
38843;SDS011;24596;48.080;8.362;2022-12-11T15:22:15;19.55;;;8.65;;
38843;SDS011;24596;48.080;8.362;2022-12-11T15:24:42;19.33;;;9.82;;
38843;SDS011;24596;48.080;8.362;2022-12-11T15:29:51;15.90;;;8.63;;
38843;SDS011;24596;48.080;8.362;2022-12-11T15:32:17;9.55;;;4.53;;
38843;SDS011;24596;48.080;8.362;2022-12-11T15:34:44;9.20;;;4.80;;
38843;SDS011;24596;48.080;8.362;2022-12-11T15:37:16;8.77;;;4.20;;
38843;SDS011;24596;48.080;8.362;2022-12-11T15:39:42;9.77;;;3.70;;
38843;SDS011;24596;48.080;8.362;2022-12-11T15:42:08;9.82;;;4.28;;
38843;SDS011;24596;48.080;8.362;2022-12-11T15:44:35;9.18;;;4.57;;
38843;SDS011;24596;48.080;8.362;2022-12-11T15:47:09;10.35;;;4.40;;
38843;SDS011;24596;48.080;8.362;2022-12-11T15:49:35;9.55;;;4.82;;
38843;SDS011;24596;48.080;8.362;2022-12-11T15:52:00;13.60;;;5.07;;
38843;SDS011;24596;48.080;8.362;2022-12-11T15:54:25;9.38;;;4.90;;
38843;SDS011;24596;48.080;8.362;2022-12-11T15:56:50;9.25;;;4.50;;
38843;SDS011;24596;48.080;8.362;2022-12-11T15:59:16;8.70;;;4.13;;